Time;durP1;ratioP1;P1;durP2;ratioP2;P2;SDS_P1;SDS_P2;PMS_P1;PMS_P2;Temp;Humidity;BMP_temperature;BMP_pressure;BME280_temperature;BME280_humidity;BME280_pressure;Samples;Min_cycle;Max_cycle;Signal;HPM_P1;HPM_P2
2022/03/10 00:00:11;;;;;;;39.55;17.63;;;5.30;64.60;;;;;;5010087;28;20090;-73
2022/03/10 00:02:43;;;;;;;39.28;18.38;;;5.30;64.60;;;;;;5009996;28;20037;-74
2022/03/10 00:05:12;;;;;;;44.72;19.70;;;5.30;64.70;;;;;;5010194;28;20026;-73
2022/03/10 00:07:38;;;;;;;45.17;19.38;;;5.30;65.10;;;;;;5010108;28;20040;-73
2022/03/10 00:10:05;;;;;;;37.83;17.40;;;5.20;65.30;;;;;;5009832;28;20034;-74
2022/03/10 00:12:31;;;;;;;43.05;19.48;;;5.30;65.20;;;;;;5009991;28;20047;-73
2022/03/10 00:14:56;;;;;;;44.75;19.50;;;5.20;65.00;;;;;;5009964;28;20018;-73
2022/03/10 00:17:22;;;;;;;46.75;18.92;;;5.30;65.10;;;;;;5009851;28;20029;-73
2022/03/10 00:19:48;;;;;;;45.90;19.23;;;5.30;64.90;;;;;;5077345;28;20026;-73
2022/03/10 00:22:14;;;;;;;38.58;18.60;;;5.40;65.10;;;;;;5009892;28;20033;-74
2022/03/10 00:24:43;;;;;;;42.92;18.80;;;5.40;65.00;;;;;;5009760;28;20026;-73
2022/03/10 00:27:09;;;;;;;37.53;18.23;;;5.40;64.70;;;;;;5009613;28;20056;-73
2022/03/10 00:29:34;;;;;;;38.05;18.33;;;5.40;64.70;;;;;;5009702;28;20026;-73
2022/03/10 00:32:01;;;;;;;40.97;18.67;;;5.40;64.70;;;;;;5010062;28;20398;-74
2022/03/10 00:34:27;;;;;;;39.75;17.95;;;5.40;64.90;;;;;;5023931;28;20356;-73
2022/03/10 00:36:53;;;;;;;44.83;17.77;;;5.40;64.90;;;;;;5009709;28;20038;-73
2022/03/10 00:39:19;;;;;;;40.45;18.27;;;5.30;64.80;;;;;;5009467;28;20065;-74
2022/03/10 00:41:47;;;;;;;34.75;16.95;;;5.40;65.00;;;;;;5009377;28;20477;-73
2022/03/10 00:44:13;;;;;;;44.25;18.23;;;5.40;65.20;;;;;;5009494;28;20033;-73
2022/03/10 00:46:39;;;;;;;41.55;18.25;;;5.30;65.10;;;;;;5009461;28;20026;-74
2022/03/10 00:49:04;;;;;;;38.70;17.75;;;5.40;65.20;;;;;;5009191;28;20112;-74
2022/03/10 00:51:30;;;;;;;38.17;18.33;;;5.30;65.20;;;;;;5009263;28;20020;-73
2022/03/10 00:53:56;;;;;;;41.20;18.40;;;5.30;65.20;;;;;;5009387;28;20018;-74
2022/03/10 00:56:21;;;;;;;38.90;18.80;;;5.30;65.40;;;;;;5077142;28;20026;-74
2022/03/10 00:58:47;;;;;;;44.58;19.27;;;5.30;65.40;;;;;;5009298;28;20033;-73
2022/03/10 01:01:13;;;;;;;40.50;18.80;;;5.30;65.60;;;;;;5009258;28;20151;-74
2022/03/10 01:03:39;;;;;;;39.85;18.27;;;5.30;65.60;;;;;;5009225;28;20030;-73
2022/03/10 01:06:04;;;;;;;37.90;17.83;;;5.20;65.70;;;;;;5009082;28;20026;-73
2022/03/10 01:08:30;;;;;;;44.10;17.70;;;5.30;65.90;;;;;;5009276;28;20033;-74
2022/03/10 01:10:56;;;;;;;43.03;18.05;;;5.20;65.80;;;;;;5008972;28;20064;-73
2022/03/10 01:13:22;;;;;;;46.72;19.02;;;5.20;65.80;;;;;;5009115;28;20030;-73
2022/03/10 01:15:47;;;;;;;40.33;18.83;;;5.20;65.70;;;;;;5009062;28;20556;-73
2022/03/10 01:18:14;;;;;;;47.38;19.20;;;5.30;65.70;;;;;;5009070;28;20034;-74
2022/03/10 01:20:41;;;;;;;38.20;17.98;;;5.20;65.70;;;;;;5009032;28;20421;-73
2022/03/10 01:23:08;;;;;;;40.38;18.23;;;5.20;65.80;;;;;;5008428;28;20479;-73
2022/03/10 01:25:33;;;;;;;42.70;18.05;;;5.20;66.00;;;;;;5008773;28;20026;-73
2022/03/10 01:27:59;;;;;;;41.88;18.10;;;5.20;66.20;;;;;;5008863;28;20091;-73
2022/03/10 01:30:25;;;;;;;41.22;18.27;;;5.10;66.10;;;;;;5008549;28;20055;-73
2022/03/10 01:32:50;;;;;;;41.22;19.55;;;5.10;66.00;;;;;;5008822;28;20053;-73
2022/03/10 01:35:17;;;;;;;40.20;17.30;;;5.20;65.90;;;;;;5008755;28;20026;-73
2022/03/10 01:37:42;;;;;;;38.47;17.92;;;5.20;65.80;;;;;;5008700;28;20097;-73
2022/03/10 01:40:14;;;;;;;42.60;18.35;;;5.20;65.90;;;;;;5008782;28;20113;-73
2022/03/10 01:42:40;;;;;;;48.60;19.52;;;5.20;65.70;;;;;;5008745;28;20018;-73
2022/03/10 01:45:07;;;;;;;39.67;17.60;;;5.20;65.70;;;;;;5009620;28;20281;-74
2022/03/10 01:47:33;;;;;;;41.22;17.13;;;5.20;65.60;;;;;;5012317;28;20506;-73
2022/03/10 01:49:59;;;;;;;42.50;18.40;;;5.20;65.70;;;;;;5012042;28;20030;-73
2022/03/10 01:52:25;;;;;;;43.55;17.55;;;5.20;65.80;;;;;;5012464;28;20018;-73
2022/03/10 01:54:50;;;;;;;41.42;18.15;;;5.20;66.60;;;;;;5012192;28;20088;-73
2022/03/10 01:57:17;;;;;;;36.97;16.80;;;5.20;65.60;;;;;;5080158;28;20022;-73
2022/03/10 01:59:43;;;;;;;41.80;18.67;;;5.20;65.70;;;;;;5011927;28;20026;-73
2022/03/10 02:02:10;;;;;;;43.72;18.25;;;5.20;66.50;;;;;;5011964;28;20071;-74
2022/03/10 02:04:35;;;;;;;35.03;16.77;;;5.20;65.60;;;;;;5011913;28;20439;-73
2022/03/10 02:07:03;;;;;;;36.55;17.10;;;5.20;65.60;;;;;;5011890;28;20061;-73
2022/03/10 02:12:13;;;;;;;35.72;16.42;;;5.20;65.50;;;;;;5011869;28;20111;-73
2022/03/10 02:17:25;;;;;;;36.15;16.88;;;5.20;65.70;;;;;;5011984;28;20403;-74
2022/03/10 02:20:00;;;;;;;42.80;18.17;;;5.20;65.60;;;;;;5079648;28;20030;-73
2022/03/10 02:22:27;;;;;;;42.95;18.02;;;5.10;65.80;;;;;;5011641;28;20157;-73
2022/03/10 02:24:54;;;;;;;41.88;17.38;;;5.20;66.00;;;;;;5011743;28;20026;-73
2022/03/10 02:27:24;;;;;;;40.22;17.67;;;5.10;66.00;;;;;;5011532;28;20061;-73
2022/03/10 02:30:01;;;;;;;37.17;16.80;;;5.10;66.00;;;;;;5079344;28;20390;-73
2022/03/10 02:32:27;;;;;;;42.88;18.40;;;5.10;65.80;;;;;;5011563;28;20158;-73
2022/03/10 02:34:53;;;;;;;37.28;18.42;;;5.10;65.90;;;;;;5079456;28;20053;-73
2022/03/10 02:37:19;;;;;;;40.20;18.80;;;5.10;65.70;;;;;;5011450;28;20426;-73
2022/03/10 02:39:45;;;;;;;42.22;17.63;;;5.20;65.80;;;;;;5011145;28;20076;-73
2022/03/10 02:42:12;;;;;;;40.83;18.33;;;5.10;65.70;;;;;;5011528;28;20030;-73
2022/03/10 02:44:42;;;;;;;37.80;17.80;;;5.10;65.90;;;;;;5011429;28;20030;-73
2022/03/10 02:47:08;;;;;;;39.85;18.10;;;5.10;65.90;;;;;;5011215;28;20037;-72
2022/03/10 02:49:34;;;;;;;41.17;17.70;;;5.10;65.90;;;;;;5079192;28;20065;-73
2022/03/10 02:52:03;;;;;;;38.72;18.67;;;5.10;66.00;;;;;;5011278;28;20058;-73
2022/03/10 02:54:29;;;;;;;45.15;17.55;;;5.10;66.00;;;;;;5011049;28;20391;-73
2022/03/10 02:56:54;;;;;;;42.25;18.05;;;5.10;66.20;;;;;;5010870;28;20033;-73
2022/03/10 02:59:20;;;;;;;36.65;17.65;;;5.00;66.20;;;;;;5011095;28;20030;-73
2022/03/10 03:01:46;;;;;;;40.67;17.52;;;5.00;66.30;;;;;;5010970;28;20034;-73
2022/03/10 03:04:12;;;;;;;41.20;17.80;;;5.00;66.30;;;;;;5011337;28;20041;-73
2022/03/10 03:06:37;;;;;;;36.47;17.73;;;5.00;66.30;;;;;;5079226;28;20041;-73
2022/03/10 03:09:03;;;;;;;39.10;17.77;;;5.00;66.50;;;;;;5010767;28;20087;-73
2022/03/10 03:11:29;;;;;;;37.28;17.55;;;5.00;66.70;;;;;;5078868;28;20070;-73
2022/03/10 03:13:56;;;;;;;39.88;17.65;;;5.00;66.70;;;;;;5010289;28;20022;-73
2022/03/10 03:16:24;;;;;;;45.92;18.98;;;5.00;66.60;;;;;;5078661;28;20090;-73
2022/03/10 03:18:49;;;;;;;41.13;19.00;;;5.00;66.60;;;;;;5010635;28;20022;-73
2022/03/10 03:21:18;;;;;;;40.90;19.00;;;5.00;66.60;;;;;;5010715;28;20040;-73
2022/03/10 03:23:44;;;;;;;42.05;18.83;;;4.90;66.60;;;;;;5010728;28;20029;-73
2022/03/10 03:26:10;;;;;;;40.10;17.65;;;4.90;66.80;;;;;;5010511;28;20445;-73
2022/03/10 03:28:36;;;;;;;34.55;16.67;;;4.90;66.80;;;;;;5010647;28;20104;-73
2022/03/10 03:31:03;;;;;;;44.47;18.48;;;5.00;66.50;;;;;;5010439;28;20163;-73
2022/03/10 03:33:30;;;;;;;44.33;18.38;;;5.00;66.30;;;;;;5078418;28;20567;-73
2022/03/10 03:35:58;;;;;;;43.13;18.20;;;5.00;66.20;;;;;;5010464;28;20483;-73
2022/03/10 03:38:24;;;;;;;40.40;18.05;;;5.00;66.20;;;;;;5078266;28;20413;-73
2022/03/10 03:40:50;;;;;;;41.60;17.50;;;5.00;66.10;;;;;;5078312;28;20037;-73
2022/03/10 03:43:16;;;;;;;42.22;18.83;;;5.00;66.00;;;;;;5010663;28;20033;-73
2022/03/10 03:45:42;;;;;;;41.25;18.02;;;5.00;66.10;;;;;;5010444;28;20570;-73
2022/03/10 03:48:08;;;;;;;38.42;18.17;;;5.00;66.20;;;;;;5010456;28;20041;-73
2022/03/10 03:50:33;;;;;;;41.75;18.55;;;5.00;66.20;;;;;;5077775;28;20117;-74
2022/03/10 03:52:59;;;;;;;41.20;19.58;;;4.90;66.30;;;;;;5077997;28;20360;-73
2022/03/10 03:55:25;;;;;;;43.58;18.73;;;5.00;66.50;;;;;;5010267;28;20024;-73
2022/03/10 03:57:50;;;;;;;40.10;17.35;;;5.00;66.40;;;;;;5010135;28;20022;-73
2022/03/10 04:00:16;;;;;;;41.45;17.27;;;4.90;66.20;;;;;;5010123;28;20034;-73
2022/03/10 04:02:43;;;;;;;40.90;18.88;;;5.00;66.40;;;;;;5077805;28;20057;-74
2022/03/10 04:05:09;;;;;;;39.03;17.50;;;4.90;66.30;;;;;;5010187;28;20049;-73
2022/03/10 04:07:35;;;;;;;42.08;17.65;;;4.90;66.60;;;;;;5009372;28;20392;-73
2022/03/10 04:10:02;;;;;;;40.40;17.63;;;4.90;66.70;;;;;;5077627;28;20483;-73
2022/03/10 04:12:28;;;;;;;38.42;17.27;;;4.90;66.80;;;;;;5010195;28;20026;-73
2022/03/10 04:14:57;;;;;;;42.80;18.55;;;4.90;66.70;;;;;;5009977;28;20079;-73
2022/03/10 04:17:23;;;;;;;41.50;18.42;;;4.90;66.50;;;;;;5009994;28;20390;-73
2022/03/10 04:19:49;;;;;;;39.88;18.73;;;4.90;66.40;;;;;;5009840;28;20038;-73
2022/03/10 04:22:15;;;;;;;42.58;18.50;;;5.00;66.40;;;;;;5009709;28;20030;-73
2022/03/10 04:24:40;;;;;;;43.88;18.98;;;5.00;66.30;;;;;;5009835;28;20030;-73
2022/03/10 04:27:06;;;;;;;44.10;18.52;;;4.90;66.20;;;;;;5009610;28;20058;-73
2022/03/10 04:29:32;;;;;;;49.08;19.75;;;5.00;66.20;;;;;;5077190;28;20498;-74
2022/03/10 04:32:01;;;;;;;45.40;20.25;;;5.00;66.20;;;;;;5009706;28;20052;-73
2022/03/10 04:34:27;;;;;;;39.75;18.15;;;5.00;66.20;;;;;;5024180;28;20580;-73
2022/03/10 04:36:52;;;;;;;42.17;18.88;;;5.00;66.20;;;;;;5009709;28;20034;-73
2022/03/10 04:39:18;;;;;;;42.63;19.08;;;5.00;65.90;;;;;;5009622;28;20025;-73
2022/03/10 04:41:44;;;;;;;43.25;19.77;;;5.10;66.00;;;;;;5077333;28;20441;-73
2022/03/10 04:44:10;;;;;;;46.40;20.02;;;5.00;66.10;;;;;;5009550;28;20029;-73
2022/03/10 04:46:36;;;;;;;42.80;19.13;;;5.00;66.40;;;;;;5009323;28;20068;-73
2022/03/10 04:49:03;;;;;;;43.28;19.48;;;5.00;66.50;;;;;;5009300;28;20030;-73
2022/03/10 04:51:29;;;;;;;44.10;19.27;;;5.00;66.30;;;;;;5009547;28;20022;-73
2022/03/10 04:53:55;;;;;;;46.17;20.77;;;5.00;66.30;;;;;;5009288;28;20025;-73
2022/03/10 04:56:20;;;;;;;48.35;19.98;;;5.00;66.30;;;;;;5076833;28;20025;-73
2022/03/10 04:58:46;;;;;;;42.58;19.85;;;5.00;66.20;;;;;;5076940;28;20018;-73
2022/03/10 05:01:13;;;;;;;44.97;20.90;;;4.90;66.60;;;;;;5009392;28;20491;-73
2022/03/10 05:03:39;;;;;;;42.92;19.30;;;4.90;66.70;;;;;;5009320;28;20037;-73
2022/03/10 05:06:06;;;;;;;44.42;19.17;;;4.80;66.80;;;;;;5009407;28;20029;-73
2022/03/10 05:08:33;;;;;;;43.83;19.35;;;4.90;66.90;;;;;;5009227;28;20026;-73
2022/03/10 05:10:59;;;;;;;41.78;18.50;;;4.80;66.90;;;;;;5008931;28;20056;-73
2022/03/10 05:13:25;;;;;;;47.53;19.05;;;4.80;66.90;;;;;;5009159;28;20022;-73
2022/03/10 05:15:51;;;;;;;45.53;18.15;;;4.80;67.10;;;;;;5076648;28;20356;-73
2022/03/10 05:18:17;;;;;;;44.28;20.27;;;4.80;67.50;;;;;;5008924;28;20040;-73
2022/03/10 05:20:42;;;;;;;49.53;20.40;;;4.70;67.70;;;;;;5007205;28;20026;-73
2022/03/10 05:23:08;;;;;;;46.25;20.02;;;4.70;67.70;;;;;;5008992;28;20026;-73
2022/03/10 05:25:38;;;;;;;40.97;19.30;;;4.70;67.60;;;;;;5008687;28;20034;-73
2022/03/10 05:28:07;;;;;;;40.15;19.20;;;4.70;67.40;;;;;;5008929;28;20056;-73
2022/03/10 05:30:33;;;;;;;42.97;19.38;;;4.70;67.40;;;;;;5008614;28;20497;-73
2022/03/10 05:32:59;;;;;;;44.85;19.92;;;4.80;67.50;;;;;;5076211;28;20106;-73
2022/03/10 05:35:29;;;;;;;48.45;21.58;;;4.70;67.20;;;;;;5076508;28;20483;-73
2022/03/10 05:37:55;;;;;;;45.78;19.92;;;4.70;67.20;;;;;;5008491;28;20026;-73
2022/03/10 05:40:22;;;;;;;46.22;20.40;;;4.70;67.40;;;;;;5076468;28;20413;-73
2022/03/10 05:42:51;;;;;;;46.65;21.17;;;4.70;67.80;;;;;;5007828;28;20026;-73
2022/03/10 05:45:20;;;;;;;41.97;19.98;;;4.60;67.90;;;;;;4997187;28;20061;-73
2022/03/10 05:47:51;;;;;;;44.28;20.27;;;4.60;67.90;;;;;;5063893;28;21143;-73
2022/03/10 05:50:17;;;;;;;48.70;19.73;;;4.70;67.80;;;;;;4996887;28;20030;-73
2022/03/10 05:52:45;;;;;;;42.03;19.73;;;4.70;67.60;;;;;;4996971;28;20022;-73
2022/03/10 05:55:13;;;;;;;44.63;20.75;;;4.70;67.60;;;;;;4996639;28;20023;-73
2022/03/10 05:57:40;;;;;;;44.92;20.80;;;4.70;67.60;;;;;;5064807;28;20026;-73
2022/03/10 06:00:07;;;;;;;45.30;19.63;;;4.70;67.60;;;;;;5065456;28;20107;-73
2022/03/10 06:02:32;;;;;;;40.58;19.33;;;4.70;68.00;;;;;;4996553;28;20030;-73
2022/03/10 06:04:59;;;;;;;47.60;19.08;;;4.70;68.00;;;;;;4992772;28;20483;-73
2022/03/10 06:07:26;;;;;;;42.47;20.27;;;4.70;67.80;;;;;;4988918;28;20192;-74
2022/03/10 06:09:51;;;;;;;43.03;21.35;;;4.70;67.80;;;;;;4988762;28;20031;-73
2022/03/10 06:12:25;;;;;;;42.25;19.30;;;4.70;67.70;;;;;;4988777;28;20484;-73
2022/03/10 06:14:59;;;;;;;41.47;18.20;;;4.70;68.00;;;;;;4988940;28;20033;-73
2022/03/10 06:17:26;;;;;;;40.88;17.73;;;4.70;68.20;;;;;;4988763;28;20022;-73
2022/03/10 06:19:52;;;;;;;41.40;19.88;;;4.70;68.30;;;;;;5055486;28;20035;-73
2022/03/10 06:22:24;;;;;;;45.75;19.92;;;4.70;68.70;;;;;;4986929;28;20050;-73
2022/03/10 06:24:50;;;;;;;48.15;19.20;;;4.70;68.60;;;;;;4986823;28;20022;-74
2022/03/10 06:27:17;;;;;;;41.90;18.63;;;4.60;68.40;;;;;;4986673;28;20070;-73
2022/03/10 06:29:43;;;;;;;42.60;19.13;;;4.70;68.40;;;;;;4986644;28;20027;-73
2022/03/10 06:32:12;;;;;;;36.88;18.00;;;4.70;68.50;;;;;;4989187;28;20022;-73
2022/03/10 06:34:38;;;;;;;37.30;17.73;;;4.70;68.50;;;;;;4990099;28;20022;-73
2022/03/10 06:37:07;;;;;;;35.55;17.08;;;4.80;68.30;;;;;;5024360;28;20431;-73
2022/03/10 06:39:34;;;;;;;42.00;19.52;;;4.80;68.20;;;;;;5011462;28;20030;-73
2022/03/10 06:42:01;;;;;;;40.35;18.92;;;4.90;67.80;;;;;;5011611;28;20025;-73
2022/03/10 06:44:26;;;;;;;43.72;19.80;;;4.90;67.80;;;;;;5011610;28;20029;-73
2022/03/10 06:46:52;;;;;;;39.55;18.42;;;5.00;67.90;;;;;;5079322;28;20034;-72
2022/03/10 06:49:18;;;;;;;42.38;18.00;;;5.00;67.80;;;;;;5011004;28;20387;-73
2022/03/10 06:51:44;;;;;;;42.95;18.08;;;5.10;67.70;;;;;;5079119;28;20029;-73
2022/03/10 06:54:10;;;;;;;41.03;18.48;;;5.10;67.50;;;;;;5011141;28;20033;-73
2022/03/10 06:56:37;;;;;;;37.03;17.95;;;5.20;67.50;;;;;;5010973;28;20022;-73
2022/03/10 06:59:03;;;;;;;42.10;18.48;;;5.20;67.50;;;;;;5011181;28;20050;-73
2022/03/10 07:01:29;;;;;;;45.25;17.65;;;5.20;67.80;;;;;;5011064;28;20057;-73
2022/03/10 07:03:57;;;;;;;48.78;18.98;;;5.30;68.30;;;;;;5011010;28;20032;-73
2022/03/10 07:06:23;;;;;;;42.13;19.02;;;5.30;68.20;;;;;;5078925;28;20109;-73
2022/03/10 07:08:49;;;;;;;41.90;17.63;;;5.30;68.20;;;;;;5079357;28;20026;-74
2022/03/10 07:11:15;;;;;;;43.08;17.70;;;5.40;68.20;;;;;;5011192;28;20505;-74
2022/03/10 07:13:41;;;;;;;38.70;18.35;;;5.50;67.80;;;;;;5011055;28;20022;-74
2022/03/10 07:16:06;;;;;;;48.83;20.60;;;5.50;67.60;;;;;;5079157;28;20022;-75
2022/03/10 07:18:32;;;;;;;37.17;17.50;;;5.50;67.60;;;;;;5010960;28;20032;-75
2022/03/10 07:20:58;;;;;;;36.15;17.83;;;5.60;68.20;;;;;;5078707;28;20029;-75
2022/03/10 07:23:24;;;;;;;38.17;18.35;;;5.60;68.70;;;;;;5079172;28;20026;-75
2022/03/10 07:25:49;;;;;;;42.40;18.48;;;5.60;68.50;;;;;;5010671;28;20053;-75
2022/03/10 07:28:15;;;;;;;44.97;18.83;;;5.70;68.80;;;;;;5010313;28;20026;-75
2022/03/10 07:30:41;;;;;;;41.95;18.10;;;5.70;68.90;;;;;;5010983;28;20087;-75
2022/03/10 07:33:06;;;;;;;41.75;18.15;;;5.80;69.00;;;;;;5011160;28;20096;-75
2022/03/10 07:35:33;;;;;;;43.17;18.70;;;5.80;68.80;;;;;;5011205;28;20071;-75
2022/03/10 07:37:59;;;;;;;43.30;19.70;;;5.90;69.30;;;;;;5011318;28;20041;-75
2022/03/10 07:40:26;;;;;;;47.85;19.85;;;5.90;69.30;;;;;;5011410;28;20026;-75
2022/03/10 07:42:51;;;;;;;47.80;21.23;;;6.00;69.50;;;;;;5010781;28;20470;-74
2022/03/10 07:45:17;;;;;;;48.13;20.10;;;6.00;69.90;;;;;;5011420;28;20054;-75
2022/03/10 07:47:43;;;;;;;47.97;20.27;;;6.00;69.50;;;;;;5011190;28;20434;-75
2022/03/10 07:50:09;;;;;;;49.20;20.33;;;6.10;69.40;;;;;;5010532;28;20502;-75
2022/03/10 07:52:35;;;;;;;53.13;20.05;;;6.10;68.90;;;;;;5010896;28;20030;-75
2022/03/10 07:55:03;;;;;;;44.05;19.65;;;6.20;68.60;;;;;;5010674;28;20039;-75
2022/03/10 07:57:29;;;;;;;43.65;19.80;;;6.20;68.00;;;;;;5010374;28;20018;-75
2022/03/10 07:59:55;;;;;;;50.92;20.67;;;6.40;66.90;;;;;;5010219;28;20096;-75
2022/03/10 08:02:21;;;;;;;53.08;22.63;;;6.40;67.70;;;;;;5078060;28;20038;-75
2022/03/10 08:04:47;;;;;;;53.05;21.92;;;6.40;70.10;;;;;;5010267;28;20105;-74
2022/03/10 08:07:13;;;;;;;53.75;22.20;;;6.60;73.10;;;;;;5010048;28;20049;-74
2022/03/10 08:09:38;;;;;;;49.65;22.17;;;6.60;71.10;;;;;;5010073;28;20498;-74
2022/03/10 08:12:05;;;;;;;50.17;21.77;;;6.70;71.00;;;;;;5010286;28;20026;-74
2022/03/10 08:14:30;;;;;;;51.35;21.10;;;6.70;70.70;;;;;;5010066;28;20056;-74
2022/03/10 08:16:56;;;;;;;50.47;22.13;;;6.70;70.30;;;;;;5009889;28;20054;-74
2022/03/10 08:19:22;;;;;;;57.78;22.52;;;6.80;70.80;;;;;;5009819;28;20091;-74
2022/03/10 08:21:48;;;;;;;55.25;22.52;;;6.90;70.00;;;;;;5009860;28;20028;-74
2022/03/10 08:24:14;;;;;;;50.75;22.55;;;7.00;68.50;;;;;;5009923;28;20068;-74
2022/03/10 08:26:41;;;;;;;52.00;21.85;;;7.00;68.00;;;;;;5009614;28;20511;-75
2022/03/10 08:29:07;;;;;;;48.88;23.63;;;7.10;68.10;;;;;;5077376;28;20030;-75
2022/03/10 08:31:32;;;;;;;57.05;21.30;;;7.10;67.80;;;;;;5009791;28;20022;-74
2022/03/10 08:33:58;;;;;;;52.35;21.45;;;7.10;68.20;;;;;;5024107;28;20045;-75
2022/03/10 08:36:24;;;;;;;50.72;21.92;;;7.20;67.50;;;;;;5009623;28;20086;-74
2022/03/10 08:38:50;;;;;;;53.55;21.90;;;7.30;69.30;;;;;;5077241;28;20280;-74
2022/03/10 08:41:15;;;;;;;51.38;21.48;;;7.30;67.60;;;;;;5009498;28;20272;-74
2022/03/10 08:43:41;;;;;;;53.83;22.73;;;7.30;66.80;;;;;;5009650;28;20029;-74
2022/03/10 08:46:07;;;;;;;49.03;21.75;;;7.30;64.70;;;;;;5009484;28;20030;-74
2022/03/10 08:48:34;;;;;;;49.15;21.35;;;7.40;64.00;;;;;;5009480;28;20075;-74
2022/03/10 08:51:02;;;;;;;52.05;20.27;;;7.40;64.80;;;;;;5009416;28;20030;-74
2022/03/10 08:53:29;;;;;;;51.65;20.75;;;7.40;65.10;;;;;;5009455;28;20026;-74
2022/03/10 08:55:55;;;;;;;43.17;20.02;;;7.40;65.20;;;;;;5009413;28;20029;-74
2022/03/10 08:58:21;;;;;;;52.10;22.00;;;7.60;65.50;;;;;;5009171;28;20026;-74
2022/03/10 09:00:47;;;;;;;49.83;22.25;;;7.50;65.20;;;;;;5009434;28;20030;-74
2022/03/10 09:03:12;;;;;;;43.75;19.50;;;7.50;65.30;;;;;;5009386;28;20074;-74
2022/03/10 09:05:40;;;;;;;53.90;22.20;;;7.60;66.10;;;;;;5009191;28;20121;-74
2022/03/10 09:08:06;;;;;;;46.97;20.17;;;7.60;66.50;;;;;;5009265;28;20032;-74
2022/03/10 09:10:32;;;;;;;51.08;21.75;;;7.70;67.20;;;;;;5008965;28;20379;-74
2022/03/10 09:12:58;;;;;;;55.17;21.67;;;7.70;68.00;;;;;;5076762;28;20030;-74
2022/03/10 09:15:26;;;;;;;48.13;20.85;;;7.80;66.60;;;;;;5076883;28;20029;-74
2022/03/10 09:17:55;;;;;;;49.72;20.30;;;7.80;66.70;;;;;;5009045;28;20424;-74
2022/03/10 09:20:21;;;;;;;46.22;19.40;;;7.90;67.10;;;;;;5008776;28;20344;-74
2022/03/10 09:22:47;;;;;;;47.33;20.13;;;8.00;64.80;;;;;;5008973;28;20033;-74
2022/03/10 09:25:13;;;;;;;49.13;20.42;;;8.00;63.70;;;;;;5076584;28;20042;-74
2022/03/10 09:27:40;;;;;;;41.78;18.48;;;8.00;65.10;;;;;;5008840;28;20121;-74
2022/03/10 09:30:08;;;;;;;48.47;20.80;;;8.10;65.30;;;;;;5075703;28;20101;-74
2022/03/10 09:32:41;;;;;;;49.72;20.65;;;8.20;64.70;;;;;;5008895;28;20110;-74
2022/03/10 09:35:10;;;;;;;50.47;21.10;;;8.30;63.70;;;;;;5008644;28;20029;-75
2022/03/10 09:37:36;;;;;;;48.03;20.63;;;8.30;65.50;;;;;;5008727;28;20026;-74
2022/03/10 09:40:03;;;;;;;51.63;21.48;;;8.40;66.50;;;;;;5008679;28;20078;-74
2022/03/10 09:42:30;;;;;;;45.72;21.77;;;8.50;65.60;;;;;;5008585;28;20026;-75
2022/03/10 09:44:58;;;;;;;50.00;19.98;;;8.60;65.00;;;;;;5008675;28;20390;-74
2022/03/10 09:47:25;;;;;;;45.08;20.10;;;8.60;64.80;;;;;;5008686;28;20101;-75
2022/03/10 09:49:52;;;;;;;45.40;19.40;;;8.60;64.70;;;;;;5075929;28;20041;-74
2022/03/10 09:52:18;;;;;;;54.80;20.38;;;8.60;63.80;;;;;;5008719;28;20050;-74
2022/03/10 09:54:44;;;;;;;43.88;20.45;;;8.70;60.90;;;;;;5008632;28;20059;-74
2022/03/10 09:57:13;;;;;;;54.97;21.10;;;8.70;61.10;;;;;;5008554;28;20101;-74
2022/03/10 09:59:50;;;;;;;46.47;20.13;;;8.80;62.00;;;;;;5008618;28;20407;-74
2022/03/10 10:02:16;;;;;;;46.17;19.70;;;8.90;61.60;;;;;;5008747;28;20018;-75
2022/03/10 10:04:43;;;;;;;49.83;20.92;;;9.00;59.80;;;;;;5008522;28;20026;-75
2022/03/10 10:07:10;;;;;;;47.42;20.42;;;9.10;60.10;;;;;;5010980;28;20020;-74
2022/03/10 10:09:59;;;;;;;51.47;21.38;;;9.20;58.90;;;;;;5011780;28;20022;-74
2022/03/10 10:12:30;;;;;;;51.88;20.92;;;9.30;59.50;;;;;;5011887;28;20033;-74
2022/03/10 10:14:58;;;;;;;49.58;22.85;;;9.50;59.30;;;;;;5011713;28;20502;-74
2022/03/10 10:17:29;;;;;;;51.25;20.27;;;9.50;58.50;;;;;;5079927;28;20022;-74
2022/03/10 10:19:57;;;;;;;50.17;20.67;;;9.50;58.40;;;;;;5011696;28;20025;-74
2022/03/10 10:22:24;;;;;;;48.72;21.08;;;9.50;60.70;;;;;;5011556;28;20030;-74
2022/03/10 10:24:52;;;;;;;46.05;20.73;;;9.80;61.60;;;;;;5079745;28;20387;-74
2022/03/10 10:27:22;;;;;;;54.78;22.58;;;9.80;59.90;;;;;;5011472;28;20046;-74
2022/03/10 10:29:54;;;;;;;51.78;21.77;;;9.70;59.00;;;;;;5079601;28;20038;-74
2022/03/10 10:32:36;;;;;;;49.42;22.70;;;9.80;59.10;;;;;;5026203;28;20087;-74
2022/03/10 10:35:08;;;;;;;50.78;21.33;;;10.10;59.20;;;;;;5011789;28;20571;-74
2022/03/10 10:37:39;;;;;;;49.65;21.83;;;10.00;58.40;;;;;;5011594;28;20241;-74
2022/03/10 10:40:06;;;;;;;56.85;23.73;;;10.20;59.30;;;;;;5079494;28;20022;-74
2022/03/10 10:42:34;;;;;;;54.42;22.95;;;10.20;58.20;;;;;;5079428;28;20026;-74
2022/03/10 10:45:01;;;;;;;49.45;22.05;;;10.30;59.50;;;;;;5011560;28;20113;-74
2022/03/10 10:47:30;;;;;;;57.72;22.13;;;10.50;59.70;;;;;;5011185;28;20126;-74
2022/03/10 10:50:05;;;;;;;60.42;22.67;;;10.60;59.50;;;;;;5011067;28;20032;-74
2022/03/10 10:52:38;;;;;;;52.67;24.20;;;10.70;58.80;;;;;;5011310;28;20473;-74
2022/03/10 10:55:13;;;;;;;49.08;21.75;;;10.70;59.70;;;;;;5011318;28;20022;-74
2022/03/10 10:57:39;;;;;;;49.97;22.45;;;10.80;60.00;;;;;;5011320;28;20045;-74
2022/03/10 11:00:09;;;;;;;51.10;22.80;;;10.90;58.90;;;;;;5011196;28;20075;-74
2022/03/10 11:02:43;;;;;;;52.38;21.63;;;11.00;58.70;;;;;;5011043;28;20011;-74
2022/03/10 11:05:14;;;;;;;50.28;23.50;;;11.00;58.30;;;;;;5010978;28;20018;-74
2022/03/10 11:07:41;;;;;;;55.97;23.17;;;11.10;58.50;;;;;;5011150;28;20018;-74
2022/03/10 11:10:11;;;;;;;58.67;21.58;;;11.20;58.20;;;;;;5010980;28;20280;-74
2022/03/10 11:12:40;;;;;;;59.67;23.63;;;11.40;58.50;;;;;;5079177;28;20536;-74
2022/03/10 11:15:09;;;;;;;56.63;23.27;;;11.40;58.50;;;;;;5010975;28;20075;-74
2022/03/10 11:17:35;;;;;;;55.90;23.08;;;11.50;57.20;;;;;;5010737;28;20542;-74
2022/03/10 11:20:11;;;;;;;47.53;20.67;;;11.50;55.70;;;;;;5010757;28;20030;-74
2022/03/10 11:22:56;;;;;;;53.38;23.75;;;11.60;56.40;;;;;;5010660;28;20071;-74
2022/03/10 11:25:33;;;;;;;52.83;21.98;;;11.60;53.20;;;;;;5010660;28;20418;-74
2022/03/10 11:28:25;;;;;;;48.55;21.08;;;11.70;54.60;;;;;;5010574;28;20030;-74
2022/03/10 11:30:56;;;;;;;44.40;19.40;;;11.70;53.20;;;;;;5069504;28;20407;-74
2022/03/10 11:33:32;;;;;;;51.25;22.17;;;11.90;53.70;;;;;;5010688;28;20022;-74
2022/03/10 11:35:58;;;;;;;49.22;20.25;;;11.90;53.60;;;;;;5010812;28;20018;-74
2022/03/10 11:38:57;;;;;;;43.53;20.20;;;11.90;52.80;;;;;;5010550;28;20026;-74
2022/03/10 11:41:44;;;;;;;49.97;20.30;;;12.00;53.30;;;;;;5014145;28;20041;-74
2022/03/10 11:44:11;;;;;;;43.85;19.42;;;12.10;50.20;;;;;;5010402;28;20018;-74
2022/03/10 11:46:50;;;;;;;46.70;20.25;;;12.30;50.80;;;;;;5010491;28;20018;-74
2022/03/10 11:49:16;;;;;;;46.80;20.35;;;12.30;49.60;;;;;;5010218;28;20022;-74
2022/03/10 11:51:43;;;;;;;48.08;21.50;;;12.50;51.30;;;;;;5010423;28;20033;-74
2022/03/10 11:54:10;;;;;;;46.40;20.40;;;12.60;52.10;;;;;;5010396;28;20050;-74
2022/03/10 11:56:44;;;;;;;50.22;22.63;;;12.80;52.20;;;;;;5010542;28;20022;-74
2022/03/10 11:59:42;;;;;;;50.58;20.52;;;12.70;49.80;;;;;;5010164;28;20071;-74
2022/03/10 12:02:32;;;;;;;45.38;21.45;;;12.70;50.40;;;;;;5077554;28;20025;-74
2022/03/10 12:04:58;;;;;;;50.53;20.50;;;12.80;50.70;;;;;;5078177;28;20037;-74
2022/03/10 12:07:29;;;;;;;52.60;22.05;;;12.90;50.70;;;;;;5010280;28;20586;-74
2022/03/10 12:10:06;;;;;;;55.58;21.40;;;12.90;50.80;;;;;;5009941;28;20030;-74
2022/03/10 12:12:37;;;;;;;60.20;23.42;;;13.00;51.10;;;;;;5077884;28;20026;-74
2022/03/10 12:15:21;;;;;;;51.80;20.63;;;13.10;51.10;;;;;;5077871;28;20409;-74
2022/03/10 12:17:52;;;;;;;54.22;24.13;;;13.10;50.40;;;;;;5010015;28;20025;-74
2022/03/10 12:20:37;;;;;;;59.95;25.13;;;13.20;51.40;;;;;;5077478;28;20033;-74
2022/03/10 12:23:15;;;;;;;54.60;22.25;;;13.20;51.00;;;;;;5009815;28;20033;-74
2022/03/10 12:25:47;;;;;;;53.55;22.52;;;13.30;51.80;;;;;;5077299;28;20132;-74
2022/03/10 12:28:35;;;;;;;52.97;23.55;;;13.50;52.90;;;;;;5077249;28;20042;-74
2022/03/10 12:31:08;;;;;;;55.83;23.23;;;13.60;51.10;;;;;;5009857;28;20116;-74
2022/03/10 12:33:43;;;;;;;58.20;24.23;;;13.70;51.50;;;;;;5022138;28;20045;-74
2022/03/10 12:36:10;;;;;;;57.60;23.92;;;13.70;50.70;;;;;;4990207;28;20034;-74
2022/03/10 12:38:41;;;;;;;55.53;23.35;;;13.70;50.10;;;;;;4990059;28;20064;-74
2022/03/10 12:41:08;;;;;;;61.90;25.48;;;13.60;48.90;;;;;;5057148;28;20068;-74
2022/03/10 12:43:34;;;;;;;55.95;25.15;;;13.60;49.70;;;;;;4990017;28;20022;-74